This is the latest recevied weather packets stored in our database for station/object N3EDS. If no packets are shown the sender has not sent any weather packets the latest 10 day(s).
| Time | Temp. | Humidity | Pressure | Rain* | Wind** | Luminosity | Snow |
|---|---|---|---|---|---|---|---|
| 1777935925 | 18.33° C | 56% | 1010 hPa | 0 mm | - | 50 W/m² | - |
| 1777935624 | 18.33° C | 56% | 1010 hPa | 0 mm | - | 50 W/m² | - |
| 1777935320 | 18.89° C | 56% | 1010 hPa | 0 mm | - | 45 W/m² | - |
| 1777935017 | 18.89° C | 56% | 1010 hPa | 0 mm | - | 52 W/m² | - |
| 1777934714 | 18.89° C | 55% | 1010.2 hPa | 0 mm | - | 67 W/m² | - |
| 1777934411 | 18.89° C | 56% | 1010 hPa | 0 mm | - | 68 W/m² | - |
| 1777934108 | 18.89° C | 55% | 1010 hPa | 0 mm | - | 53 W/m² | - |
| 1777933804 | 19.44° C | 54% | 1009.9 hPa | 0 mm | - | 96 W/m² | - |
| 1777933501 | 19.44° C | 53% | 1009.9 hPa | 0 mm | - | 74 W/m² | - |
| 1777933198 | 19.44° C | 52% | 1009.9 hPa | 0 mm | - | 65 W/m² | - |
| 1777932895 | 19.44° C | 52% | 1009.8 hPa | 0 mm | - | 65 W/m² | - |
| 1777932592 | 19.44° C | 52% | 1009.8 hPa | 0 mm | - | 75 W/m² | - |
| 1777932289 | 19.44° C | 51% | 1009.7 hPa | 0 mm | - | 70 W/m² | - |
| 1777931986 | 19.44° C | 53% | 1009.8 hPa | 0 mm | - | 104 W/m² | - |
| 1777931682 | 19.44° C | 52% | 1009.9 hPa | 0 mm | - | 73 W/m² | - |
| 1777931379 | 19.44° C | 52% | 1009.8 hPa | 0 mm | - | 93 W/m² | - |
| 1777931075 | 19.44° C | 51% | 1009.9 hPa | 0 mm | - | 115 W/m² | - |
| 1777930772 | 19.44° C | 52% | 1009.9 hPa | 0 mm | - | 223 W/m² | - |
| 1777930468 | 19.44° C | 50% | 1009.9 hPa | 0 mm | - | 100 W/m² | - |
| 1777930166 | 20° C | 50% | 1009.8 hPa | 0 mm | - | 135 W/m² | - |
| 1777929861 | 20.56° C | 48% | 1009.8 hPa | 0 mm | - | 88 W/m² | - |
| 1777929559 | 20° C | 49% | 1009.8 hPa | 0 mm | - | 223 W/m² | - |
| 1777929255 | 20° C | 51% | 1009.9 hPa | 0 mm | - | 427 W/m² | - |
| 1777928952 | 19.44° C | 51% | 1010 hPa | 0 mm | - | 488 W/m² | - |
| 1777928649 | 20.56° C | 51% | 1009.9 hPa | 0 mm | - | 105 W/m² | - |
* Rain latest hour (hover to see other rain measurements)
** Current wind speed in m/s (hover to see current wind gust speed)